createdAt,value
2018-03-29T00:00:34.089Z,85.46
2018-03-29T00:03:02.389Z,84.98
2018-03-29T00:05:30.596Z,83.91
2018-03-29T00:07:58.827Z,84.63
2018-03-29T00:10:27.085Z,83.98
2018-03-29T00:12:55.340Z,84.74
2018-03-29T00:15:23.590Z,84.29
2018-03-29T00:17:52.608Z,85.19
2018-03-29T00:20:20.876Z,85.16
2018-03-29T00:22:49.881Z,84.05
2018-03-29T00:25:18.240Z,84.70
2018-03-29T00:27:46.430Z,84.71
2018-03-29T00:30:14.684Z,83.75
2018-03-29T00:32:42.932Z,84.24
2018-03-29T00:35:11.194Z,84.54
2018-03-29T00:37:39.431Z,84.27
2018-03-29T00:40:08.550Z,85.61
2018-03-29T00:42:36.816Z,85.79
2018-03-29T00:45:05.836Z,85.34
2018-03-29T00:47:34.923Z,86.62
2018-03-29T00:50:03.940Z,86.48
2018-03-29T00:52:32.189Z,86.83
2018-03-29T00:55:01.228Z,85.63
2018-03-29T00:57:29.469Z,85.15
2018-03-29T00:59:58.483Z,83.71
2018-03-29T01:02:27.495Z,83.08
2018-03-29T01:04:55.843Z,84.39
2018-03-29T01:07:24.867Z,83.15
2018-03-29T01:09:53.866Z,84.97
2018-03-29T01:12:22.117Z,84.50
2018-03-29T01:14:50.372Z,84.73
2018-03-29T01:17:19.862Z,82.99
2018-03-29T01:19:48.101Z,83.39
2018-03-29T01:22:17.127Z,84.76
2018-03-29T01:24:45.367Z,84.12
2018-03-29T01:27:14.390Z,84.93
2018-03-29T01:29:42.632Z,84.68
2018-03-29T01:32:10.901Z,84.69
2018-03-29T01:34:39.148Z,84.79
2018-03-29T01:37:07.396Z,84.48
2018-03-29T01:39:36.416Z,84.73
2018-03-29T01:42:04.662Z,85.91
2018-03-29T01:44:33.681Z,85.43
2018-03-29T01:47:01.941Z,85.93
2018-03-29T01:49:30.969Z,86.19
2018-03-29T01:51:59.222Z,86.29
2018-03-29T01:54:29.481Z,85.75
2018-03-29T01:56:57.724Z,86.05
2018-03-29T01:59:26.732Z,86.35
2018-03-29T02:01:55.750Z,85.63
2018-03-29T02:04:24.000Z,86.27
2018-03-29T02:06:53.007Z,86.39
2018-03-29T02:09:21.368Z,85.80
2018-03-29T02:11:49.625Z,87.13
2018-03-29T02:14:17.861Z,87.02
2018-03-29T02:16:46.232Z,86.95
2018-03-29T02:19:15.240Z,86.64
2018-03-29T02:21:43.487Z,86.47
2018-03-29T02:24:11.736Z,86.49
2018-03-29T02:26:39.980Z,86.58
2018-03-29T02:29:08.226Z,86.69
2018-03-29T02:31:36.480Z,87.08
2018-03-29T02:34:04.721Z,86.24
2018-03-29T02:36:32.991Z,86.90
2018-03-29T02:39:01.245Z,85.93
2018-03-29T02:41:29.546Z,85.79
2018-03-29T02:43:58.560Z,86.33
2018-03-29T02:46:26.808Z,86.01
2018-03-29T02:48:55.045Z,85.88
2018-03-29T02:51:23.304Z,85.98
2018-03-29T02:53:51.538Z,85.98
2018-03-29T02:56:19.793Z,86.11
2018-03-29T02:58:48.044Z,85.61
2018-03-29T03:01:16.284Z,86.47
2018-03-29T03:03:44.532Z,86.03
2018-03-29T03:06:12.769Z,86.53
2018-03-29T03:08:41.781Z,85.83
2018-03-29T03:11:10.037Z,86.88
2018-03-29T03:13:39.038Z,85.20
2018-03-29T03:16:08.056Z,85.33
2018-03-29T03:18:36.305Z,85.34
2018-03-29T03:21:04.547Z,84.78
2018-03-29T03:23:32.793Z,84.61
2018-03-29T03:26:01.036Z,86.12
2018-03-29T03:28:30.533Z,86.39
2018-03-29T03:30:58.781Z,85.36
2018-03-29T03:33:27.044Z,85.94
2018-03-29T03:35:55.298Z,85.40
2018-03-29T03:38:24.312Z,85.24
2018-03-29T03:40:53.326Z,85.04
2018-03-29T03:43:21.583Z,85.41
2018-03-29T03:45:50.588Z,85.38
2018-03-29T03:48:18.823Z,85.24
2018-03-29T03:50:47.080Z,85.30
2018-03-29T03:53:15.320Z,84.75
2018-03-29T03:55:44.344Z,84.77
2018-03-29T03:58:12.579Z,83.76
2018-03-29T04:00:40.825Z,84.39
2018-03-29T04:03:09.074Z,83.59
2018-03-29T04:05:37.315Z,84.78
2018-03-29T04:08:05.564Z,84.18
2018-03-29T04:10:33.815Z,84.44
2018-03-29T04:13:02.064Z,85.31
2018-03-29T04:15:31.237Z,84.96
2018-03-29T04:17:59.514Z,85.12
2018-03-29T04:20:27.765Z,85.06
2018-03-29T04:22:56.014Z,84.81
2018-03-29T04:25:26.273Z,85.67
2018-03-29T04:27:54.512Z,85.39
2018-03-29T04:30:23.543Z,85.23
2018-03-29T04:32:52.616Z,85.79
2018-03-29T04:35:21.625Z,86.35
2018-03-29T04:37:49.872Z,85.46
2018-03-29T04:40:18.111Z,86.18
2018-03-29T04:42:46.360Z,86.03
2018-03-29T04:45:15.373Z,86.59
2018-03-29T04:47:43.619Z,86.46
2018-03-29T04:50:12.635Z,87.10
2018-03-29T04:52:41.654Z,87.02
2018-03-29T04:55:09.913Z,86.84
2018-03-29T04:57:38.933Z,86.44
2018-03-29T05:00:07.180Z,86.92
2018-03-29T05:02:36.232Z,86.48
2018-03-29T05:05:04.442Z,86.28
2018-03-29T05:07:32.724Z,86.60
2018-03-29T05:10:00.954Z,85.67
2018-03-29T05:12:29.185Z,85.89
2018-03-29T05:14:57.436Z,85.74
2018-03-29T05:17:25.675Z,86.05
2018-03-29T05:19:53.909Z,86.20
2018-03-29T05:22:22.562Z,85.84
2018-03-29T05:24:50.792Z,85.72
2018-03-29T05:27:19.801Z,86.12
2018-03-29T05:29:48.820Z,84.63
2018-03-29T05:32:17.071Z,85.00
2018-03-29T05:34:45.320Z,85.13
2018-03-29T05:37:13.583Z,84.56
2018-03-29T05:39:41.819Z,84.83
2018-03-29T05:42:10.837Z,84.37
2018-03-29T05:44:39.084Z,85.51
2018-03-29T05:47:07.320Z,85.44
2018-03-29T05:49:35.587Z,85.74
2018-03-29T05:52:03.820Z,85.85
2018-03-29T05:54:32.064Z,85.79
2018-03-29T05:57:00.329Z,85.32
2018-03-29T05:59:29.060Z,86.03
2018-03-29T06:01:57.312Z,85.98
2018-03-29T06:04:25.571Z,85.50
2018-03-29T06:06:54.589Z,85.45
2018-03-29T06:09:22.831Z,84.62
2018-03-29T06:11:51.840Z,85.30
2018-03-29T06:14:20.087Z,85.44
2018-03-29T06:16:48.328Z,85.92
2018-03-29T06:19:16.588Z,84.81
2018-03-29T06:21:44.829Z,85.28
2018-03-29T06:24:13.084Z,86.08
2018-03-29T06:26:41.328Z,85.04
2018-03-29T06:29:09.596Z,85.05
2018-03-29T06:31:38.605Z,85.22
2018-03-29T06:34:06.848Z,85.71
2018-03-29T06:36:36.038Z,86.37
2018-03-29T06:39:04.284Z,87.28
2018-03-29T06:41:32.528Z,87.52
2018-03-29T06:44:01.548Z,87.63
2018-03-29T06:46:29.789Z,86.93
2018-03-29T06:48:58.039Z,87.82
2018-03-29T06:51:26.292Z,88.61
2018-03-29T06:53:54.544Z,87.75
2018-03-29T06:56:23.831Z,85.61
2018-03-29T06:58:52.080Z,86.04
2018-03-29T07:01:20.323Z,84.52
2018-03-29T07:03:49.341Z,83.87
2018-03-29T07:06:17.592Z,83.74
2018-03-29T07:08:46.607Z,83.62
2018-03-29T07:11:14.844Z,83.33
2018-03-29T07:13:43.100Z,81.68
2018-03-29T07:16:11.341Z,81.39
2018-03-29T07:18:40.831Z,80.14
2018-03-29T07:21:09.881Z,81.23
2018-03-29T07:23:38.109Z,80.10
2018-03-29T07:26:07.120Z,81.12
2018-03-29T07:28:35.382Z,80.76
2018-03-29T07:31:04.410Z,79.64
2018-03-29T07:33:32.656Z,79.64
2018-03-29T07:36:01.668Z,79.31
2018-03-29T07:38:30.987Z,79.91
2018-03-29T07:40:59.195Z,80.21
2018-03-29T07:43:27.440Z,79.85
2018-03-29T07:45:55.696Z,80.08
2018-03-29T07:48:24.708Z,79.71
2018-03-29T07:50:53.727Z,79.75
2018-03-29T07:53:21.975Z,77.27
2018-03-29T07:55:50.985Z,79.03
2018-03-29T07:58:20.003Z,75.29
2018-03-29T08:00:48.236Z,73.64
2018-03-29T08:03:16.476Z,74.01
2018-03-29T08:05:44.728Z,77.03
2018-03-29T08:08:12.978Z,78.13
2018-03-29T08:10:41.233Z,78.16
2018-03-29T08:13:09.476Z,79.06
2018-03-29T08:15:37.717Z,79.12
2018-03-29T08:18:05.972Z,79.74
2018-03-29T08:20:34.372Z,79.86
2018-03-29T08:23:03.868Z,80.34
2018-03-29T08:25:32.104Z,81.64
2018-03-29T08:28:00.371Z,81.64
2018-03-29T08:30:29.391Z,82.01
2018-03-29T08:32:57.637Z,81.78
2018-03-29T08:35:26.642Z,82.52
2018-03-29T08:37:55.653Z,81.70
2018-03-29T08:40:24.675Z,82.19
2018-03-29T08:42:52.931Z,80.34
2018-03-29T08:45:21.923Z,81.51
2018-03-29T08:47:50.937Z,82.83
2018-03-29T08:50:19.191Z,83.82
2018-03-29T08:52:48.216Z,84.25
2018-03-29T08:55:16.462Z,83.99
2018-03-29T08:57:45.468Z,83.65
2018-03-29T09:00:14.492Z,83.95
2018-03-29T09:02:42.736Z,83.17
2018-03-29T09:05:11.743Z,83.68
2018-03-29T09:07:40.773Z,83.53
2018-03-29T09:10:09.016Z,80.56
2018-03-29T09:12:38.020Z,79.37
2018-03-29T09:15:07.045Z,80.56
2018-03-29T09:17:36.521Z,79.49
2018-03-29T09:20:05.540Z,79.12
2018-03-29T09:22:33.815Z,75.26
2018-03-29T09:25:02.070Z,77.86
2018-03-29T09:27:30.305Z,75.77
2018-03-29T09:29:58.539Z,74.55
2018-03-29T09:32:27.558Z,77.52
2018-03-29T09:34:55.808Z,77.87
2018-03-29T09:37:24.836Z,81.84
2018-03-29T09:39:53.088Z,75.57
2018-03-29T09:42:22.095Z,74.63
2018-03-29T09:44:51.117Z,71.50
2018-03-29T09:47:19.380Z,75.36
2018-03-29T09:49:48.400Z,75.45
2018-03-29T09:52:16.640Z,76.75
2018-03-29T09:54:44.889Z,72.74
2018-03-29T09:57:13.140Z,69.23
2018-03-29T09:59:41.385Z,69.34
2018-03-29T10:02:24.092Z,65.72
2018-03-29T10:04:58.548Z,63.34
2018-03-29T10:07:32.204Z,61.29
2018-03-29T10:10:01.694Z,65.39
2018-03-29T10:12:29.957Z,60.93
2018-03-29T10:14:58.217Z,61.98
2018-03-29T10:17:26.460Z,66.55
2018-03-29T10:19:54.708Z,67.73
2018-03-29T10:22:22.969Z,66.78
2018-03-29T10:24:51.214Z,65.68
2018-03-29T10:27:20.236Z,65.12
2018-03-29T10:29:48.465Z,64.03
2018-03-29T10:32:16.775Z,61.18
2018-03-29T10:34:44.971Z,60.40
2018-03-29T10:37:13.229Z,59.01
2018-03-29T10:39:42.249Z,57.50
2018-03-29T10:42:10.512Z,55.45
2018-03-29T10:44:39.541Z,56.19
2018-03-29T10:47:07.789Z,55.20
2018-03-29T10:49:36.808Z,47.88
2018-03-29T10:52:05.057Z,39.35
2018-03-29T10:54:34.086Z,32.12
2018-03-29T10:57:02.352Z,30.01
2018-03-29T10:59:30.615Z,30.13
2018-03-29T11:01:59.524Z,30.83
2018-03-29T11:04:28.547Z,32.88
2018-03-29T11:06:56.789Z,37.59
2018-03-29T11:09:25.816Z,39.57
2018-03-29T11:11:54.082Z,33.06
2018-03-29T11:14:23.093Z,31.62
2018-03-29T11:16:51.360Z,37.35
2018-03-29T11:19:20.373Z,35.41
2018-03-29T11:21:48.636Z,27.33
2018-03-29T11:24:17.655Z,29.80
2018-03-29T11:26:45.908Z,31.37
2018-03-29T11:29:14.930Z,38.13
2018-03-29T11:31:43.195Z,35.61
2018-03-29T11:34:11.448Z,34.58
2018-03-29T11:36:39.698Z,39.71
2018-03-29T11:39:07.952Z,40.61
2018-03-29T11:41:36.214Z,41.26
2018-03-29T11:44:05.240Z,41.26
2018-03-29T11:46:33.502Z,39.08
2018-03-29T11:49:01.768Z,39.68
2018-03-29T11:51:30.812Z,40.57
2018-03-29T11:53:59.056Z,32.95
2018-03-29T11:56:27.303Z,27.26
2018-03-29T11:58:55.588Z,31.40
2018-03-29T12:01:23.840Z,31.95
2018-03-29T12:03:52.089Z,33.10
2018-03-29T12:06:20.348Z,32.98
2018-03-29T12:08:49.364Z,35.20
2018-03-29T12:11:17.628Z,36.74
2018-03-29T12:13:46.647Z,35.80
2018-03-29T12:16:14.918Z,27.62
2018-03-29T12:18:43.159Z,35.46
2018-03-29T12:21:11.415Z,28.20
2018-03-29T12:23:39.685Z,30.10
2018-03-29T12:26:07.952Z,30.76
2018-03-29T12:28:36.200Z,24.72
2018-03-29T12:31:05.217Z,26.37
2018-03-29T12:33:33.479Z,28.90
2018-03-29T12:36:02.684Z,29.20
2018-03-29T12:38:31.702Z,32.99
2018-03-29T12:41:00.064Z,33.45
2018-03-29T12:43:29.083Z,35.26
2018-03-29T12:45:57.328Z,35.95
2018-03-29T12:48:26.364Z,36.91
2018-03-29T12:50:54.628Z,36.08
2018-03-29T12:53:22.881Z,35.67
2018-03-29T12:55:51.144Z,37.68
2018-03-29T12:58:19.408Z,40.19
2018-03-29T13:00:47.672Z,41.73
2018-03-29T13:03:15.933Z,39.13
2018-03-29T13:05:44.187Z,45.83
2018-03-29T13:08:13.005Z,38.70
2018-03-29T13:10:41.252Z,40.71
2018-03-29T13:13:09.512Z,40.90
2018-03-29T13:15:37.774Z,41.25
2018-03-29T13:18:06.035Z,41.50
2018-03-29T13:20:34.284Z,37.65
2018-03-29T13:23:03.308Z,41.23
2018-03-29T13:25:31.562Z,41.94
2018-03-29T13:28:00.591Z,41.80
2018-03-29T13:30:28.844Z,41.32
2018-03-29T13:32:57.853Z,41.85
2018-03-29T13:35:26.113Z,39.66
2018-03-29T13:37:55.127Z,41.07
2018-03-29T13:40:23.762Z,40.93
2018-03-29T13:42:52.023Z,38.43
2018-03-29T13:45:20.295Z,35.30
2018-03-29T13:47:48.550Z,36.90
2018-03-29T13:50:17.566Z,36.18
2018-03-29T13:52:45.930Z,37.99
2018-03-29T13:55:14.955Z,37.49
2018-03-29T13:57:43.191Z,39.25
2018-03-29T14:00:11.456Z,38.56
2018-03-29T14:02:39.696Z,41.07
2018-03-29T14:05:07.958Z,38.11
2018-03-29T14:07:36.976Z,42.13
2018-03-29T14:10:05.226Z,44.62
2018-03-29T14:12:34.253Z,44.33
2018-03-29T14:15:02.487Z,42.63
2018-03-29T14:17:30.734Z,46.10
2018-03-29T14:19:58.984Z,45.22
2018-03-29T14:22:27.225Z,46.50
2018-03-29T14:24:55.489Z,47.09
2018-03-29T14:27:23.732Z,46.02
2018-03-29T14:29:51.972Z,47.31
2018-03-29T14:32:20.987Z,45.74
2018-03-29T14:34:49.998Z,49.22
2018-03-29T14:37:18.256Z,55.77
2018-03-29T14:39:47.278Z,57.84
2018-03-29T14:42:16.320Z,57.27
2018-03-29T14:44:44.563Z,62.66
2018-03-29T14:47:12.822Z,62.70
2018-03-29T14:49:41.836Z,59.51
2018-03-29T14:52:10.084Z,57.32
2018-03-29T14:54:39.100Z,57.13
2018-03-29T14:57:07.357Z,59.00
2018-03-29T14:59:35.614Z,60.11
2018-03-29T15:02:03.855Z,61.15
2018-03-29T15:04:32.100Z,60.31
2018-03-29T15:07:01.120Z,60.80
2018-03-29T15:09:29.353Z,61.55
2018-03-29T15:11:57.618Z,61.52
2018-03-29T15:14:25.852Z,59.73
2018-03-29T15:16:54.861Z,62.36
2018-03-29T15:19:23.115Z,60.85
2018-03-29T15:21:51.368Z,59.98
2018-03-29T15:24:20.536Z,61.01
2018-03-29T15:26:48.776Z,59.30
2018-03-29T15:29:17.792Z,61.10
2018-03-29T15:31:46.057Z,58.86
2018-03-29T15:34:15.064Z,60.43
2018-03-29T15:36:44.068Z,59.77
2018-03-29T15:39:12.324Z,59.28
2018-03-29T15:41:40.564Z,60.36
2018-03-29T15:44:08.812Z,60.24
2018-03-29T15:46:37.063Z,63.00
2018-03-29T15:49:05.320Z,62.01
2018-03-29T15:51:33.558Z,63.88
2018-03-29T15:54:01.807Z,63.12
2018-03-29T15:56:30.075Z,64.57
2018-03-29T15:58:58.365Z,65.83
2018-03-29T16:01:26.685Z,66.01
2018-03-29T16:03:54.985Z,65.42
2018-03-29T16:06:23.292Z,65.22
2018-03-29T16:11:25.924Z,66.01
2018-03-29T16:13:54.232Z,66.25
2018-03-29T16:16:22.582Z,66.46
2018-03-29T16:18:51.650Z,66.78
2018-03-29T16:21:19.964Z,67.28
2018-03-29T16:23:50.265Z,68.06
2018-03-29T16:26:18.518Z,68.43
2018-03-29T16:28:46.812Z,69.18
2018-03-29T16:31:15.054Z,69.91
2018-03-29T16:33:43.310Z,68.70
2018-03-29T16:36:12.321Z,68.98
2018-03-29T16:38:40.566Z,68.45
2018-03-29T16:41:10.520Z,68.49
2018-03-29T16:43:38.760Z,68.62
2018-03-29T16:46:07.020Z,68.67
2018-03-29T16:48:35.267Z,68.42
2018-03-29T16:51:03.523Z,68.22
2018-03-29T16:53:32.527Z,67.11
2018-03-29T16:56:00.775Z,66.75
2018-03-29T16:58:29.028Z,68.23
2018-03-29T17:00:57.290Z,68.87
2018-03-29T17:03:25.541Z,68.78
2018-03-29T17:05:54.556Z,69.43
2018-03-29T17:08:22.803Z,70.18
2018-03-29T17:10:51.812Z,72.38
2018-03-29T17:13:20.845Z,71.08
2018-03-29T17:15:49.080Z,71.39
2018-03-29T17:18:18.196Z,72.72
2018-03-29T17:20:47.744Z,73.01
2018-03-29T17:23:15.996Z,72.00
2018-03-29T17:25:44.241Z,72.53
2018-03-29T17:28:12.500Z,72.37
2018-03-29T17:30:40.835Z,72.86
2018-03-29T17:33:09.843Z,73.27
2018-03-29T17:35:38.099Z,73.79
2018-03-29T17:38:07.124Z,73.73
2018-03-29T17:40:35.372Z,75.41
2018-03-29T17:43:04.398Z,74.96
2018-03-29T17:45:32.628Z,75.03
2018-03-29T17:48:00.934Z,74.73
2018-03-29T17:50:29.148Z,74.27
2018-03-29T17:52:58.140Z,75.53
2018-03-29T17:55:26.396Z,75.37
2018-03-29T17:57:55.434Z,76.28
2018-03-29T18:00:23.675Z,76.34
2018-03-29T18:02:52.696Z,75.71
2018-03-29T18:05:20.930Z,75.46
2018-03-29T18:07:49.189Z,76.13
2018-03-29T18:10:17.468Z,74.64
2018-03-29T18:12:45.728Z,73.81
2018-03-29T18:15:13.968Z,74.32
2018-03-29T18:17:42.980Z,75.93
2018-03-29T18:20:11.239Z,74.02
2018-03-29T18:22:40.246Z,73.90
2018-03-29T18:25:09.263Z,73.58
2018-03-29T18:27:37.761Z,74.63
2018-03-29T18:30:06.001Z,75.42
2018-03-29T18:32:35.003Z,75.74
2018-03-29T18:35:04.015Z,75.05
2018-03-29T18:37:32.264Z,74.74
2018-03-29T18:40:00.520Z,74.42
2018-03-29T18:42:28.774Z,76.04
2018-03-29T18:44:57.013Z,75.33
2018-03-29T18:47:26.024Z,76.34
2018-03-29T18:49:54.764Z,77.13
2018-03-29T18:52:23.009Z,75.28
2018-03-29T18:54:51.281Z,76.01
2018-03-29T18:57:19.529Z,77.37
2018-03-29T18:59:47.791Z,79.29
2018-03-29T19:02:16.061Z,79.25
2018-03-29T19:04:44.302Z,77.97
2018-03-29T19:07:12.540Z,77.45
2018-03-29T19:09:41.064Z,77.90
2018-03-29T19:12:10.063Z,78.41
2018-03-29T19:14:38.316Z,78.21
2018-03-29T19:17:06.564Z,78.99
2018-03-29T19:19:34.813Z,79.93
2018-03-29T19:22:03.064Z,79.14
2018-03-29T19:24:32.089Z,79.94
2018-03-29T19:27:00.334Z,80.48
2018-03-29T19:29:28.584Z,80.81
2018-03-29T19:31:56.836Z,81.23
2018-03-29T19:34:25.081Z,81.57
2018-03-29T19:36:54.112Z,82.58
2018-03-29T19:39:22.352Z,82.60
2018-03-29T19:41:50.601Z,82.27
2018-03-29T19:44:18.855Z,82.51
2018-03-29T19:46:47.116Z,83.00
2018-03-29T19:49:16.124Z,82.89
2018-03-29T19:51:44.364Z,82.98
2018-03-29T19:54:12.616Z,84.87
2018-03-29T19:56:40.863Z,84.75
2018-03-29T19:59:09.128Z,86.76
2018-03-29T20:01:39.374Z,85.34
2018-03-29T20:04:07.613Z,86.05
2018-03-29T20:06:35.863Z,87.90
2018-03-29T20:09:04.138Z,88.53
2018-03-29T20:11:33.019Z,87.50
2018-03-29T20:14:01.336Z,88.69
2018-03-29T20:16:29.591Z,88.94
2018-03-29T20:18:57.828Z,89.19
2018-03-29T20:21:26.841Z,89.40
2018-03-29T20:23:55.088Z,89.93
2018-03-29T20:26:24.092Z,90.40
2018-03-29T20:28:53.174Z,89.20
2018-03-29T20:31:21.404Z,89.45
2018-03-29T20:33:49.660Z,89.03
2018-03-29T20:36:18.693Z,89.27
2018-03-29T20:38:46.940Z,90.18
2018-03-29T20:41:15.957Z,89.95
2018-03-29T20:43:44.225Z,89.83
2018-03-29T20:46:12.464Z,89.67
2018-03-29T20:48:40.714Z,90.07
2018-03-29T20:51:08.969Z,89.32
2018-03-29T20:53:37.205Z,89.81
2018-03-29T20:56:05.453Z,90.23
2018-03-29T20:58:33.692Z,90.47
2018-03-29T21:01:02.706Z,90.07
2018-03-29T21:03:30.955Z,90.15
2018-03-29T21:05:59.647Z,91.30
2018-03-29T21:08:28.660Z,91.73
2018-03-29T21:10:57.681Z,92.04
2018-03-29T21:13:25.911Z,92.36
2018-03-29T21:15:54.501Z,92.33
2018-03-29T21:18:22.743Z,92.34
2018-03-29T21:20:50.984Z,92.25
2018-03-29T21:23:20.017Z,92.48
2018-03-29T21:25:48.710Z,92.52
2018-03-29T21:28:17.173Z,92.08
2018-03-29T21:30:45.416Z,92.39
2018-03-29T21:33:13.660Z,92.00
2018-03-29T21:35:41.922Z,92.53
2018-03-29T21:38:10.152Z,92.70
2018-03-29T21:40:38.401Z,92.88
2018-03-29T21:43:06.760Z,93.07
2018-03-29T21:45:34.892Z,92.84
2018-03-29T21:48:03.140Z,92.72
2018-03-29T21:50:31.381Z,92.73
2018-03-29T21:52:59.636Z,92.99
2018-03-29T21:55:27.884Z,93.08
2018-03-29T21:57:56.162Z,92.98
2018-03-29T22:00:24.402Z,92.95
2018-03-29T22:02:53.417Z,92.80
2018-03-29T22:05:21.689Z,93.10
2018-03-29T22:07:49.930Z,93.07
2018-03-29T22:10:18.184Z,93.10
2018-03-29T22:12:46.420Z,93.03
2018-03-29T22:15:14.678Z,93.03
2018-03-29T22:17:42.918Z,93.03
2018-03-29T22:20:11.180Z,93.17
2018-03-29T22:22:39.432Z,93.37
2018-03-29T22:25:08.442Z,93.53
2018-03-29T22:27:37.448Z,93.21
2018-03-29T22:30:05.713Z,93.48
2018-03-29T22:32:34.711Z,93.50
2018-03-29T22:35:02.972Z,93.53
2018-03-29T22:37:31.215Z,93.67
2018-03-29T22:39:59.472Z,93.57
2018-03-29T22:42:27.713Z,93.23
2018-03-29T22:44:56.739Z,93.26
2018-03-29T22:47:26.060Z,93.34
2018-03-29T22:49:54.295Z,93.57
2018-03-29T22:52:23.308Z,93.76
2018-03-29T22:54:52.332Z,93.79
2018-03-29T22:57:20.580Z,93.71
2018-03-29T22:59:49.612Z,92.83
2018-03-29T23:02:17.873Z,93.48
2018-03-29T23:04:46.891Z,93.68
2018-03-29T23:07:15.160Z,93.33
2018-03-29T23:09:44.944Z,93.21
2018-03-29T23:12:13.193Z,93.25
2018-03-29T23:14:41.480Z,93.38
2018-03-29T23:17:09.725Z,93.76
2018-03-29T23:19:37.988Z,93.62
2018-03-29T23:22:06.256Z,93.91
2018-03-29T23:24:35.281Z,93.71
2018-03-29T23:27:03.532Z,93.70
2018-03-29T23:29:32.848Z,93.59
2018-03-29T23:32:01.100Z,93.58
2018-03-29T23:34:29.356Z,93.51
2018-03-29T23:36:57.603Z,93.62
2018-03-29T23:39:25.863Z,93.73
2018-03-29T23:41:54.120Z,93.76
2018-03-29T23:44:22.375Z,93.73
2018-03-29T23:46:50.624Z,93.16
2018-03-29T23:49:18.884Z,93.68
2018-03-29T23:51:47.160Z,93.22
2018-03-29T23:54:16.194Z,91.30
2018-03-29T23:56:44.444Z,91.91
2018-03-29T23:59:13.465Z,92.36
